createdAt,value
2017-06-10T00:00:16.779Z,80.11
2017-06-10T00:01:29.589Z,80.3
2017-06-10T00:02:41.911Z,79.72
2017-06-10T00:03:54.709Z,79.91
2017-06-10T00:05:06.538Z,80.11
2017-06-10T00:06:19.319Z,80.97
2017-06-10T00:07:31.138Z,80.58
2017-06-10T00:08:43.921Z,80.2
2017-06-10T00:09:56.904Z,80.2
2017-06-10T00:11:09.684Z,79.82
2017-06-10T00:12:21.980Z,79.91
2017-06-10T00:13:34.758Z,80.11
2017-06-10T00:14:47.251Z,80.11
2017-06-10T00:15:59.551Z,80.11
2017-06-10T00:17:12.325Z,79.72
2017-06-10T00:18:25.104Z,80.01
2017-06-10T00:19:37.397Z,80.49
2017-06-10T00:20:50.370Z,81.07
2017-06-10T00:22:02.665Z,81.74
2017-06-10T00:23:14.967Z,81.93
2017-06-10T00:24:27.265Z,81.93
2017-06-10T00:25:40.244Z,81.93
2017-06-10T00:26:53.043Z,82.89
2017-06-10T00:28:05.824Z,82.7
2017-06-10T00:29:18.119Z,82.51
2017-06-10T00:30:30.897Z,82.79
2017-06-10T00:31:43.394Z,82.41
2017-06-10T00:32:56.171Z,82.46
2017-06-10T00:34:08.950Z,82.37
2017-06-10T00:35:21.728Z,82.51
2017-06-10T00:36:34.727Z,82.89
2017-06-10T00:37:47.524Z,82.7
2017-06-10T00:39:00.303Z,82.56
2017-06-10T00:40:13.077Z,82.94
2017-06-10T00:41:25.370Z,82.56
2017-06-10T00:42:37.667Z,82.51
2017-06-10T00:43:50.005Z,82.56
2017-06-10T00:45:02.782Z,82.41
2017-06-10T00:46:15.562Z,82.51
2017-06-10T00:47:28.540Z,82.7
2017-06-10T00:48:41.315Z,83.33
2017-06-10T00:49:53.611Z,83.04
2017-06-10T00:51:05.425Z,82.85
2017-06-10T00:52:18.212Z,83.23
2017-06-10T00:53:30.989Z,82.85
2017-06-10T00:54:43.291Z,82.37
2017-06-10T00:55:56.071Z,82.56
2017-06-10T00:57:08.879Z,82.27
2017-06-10T00:58:21.655Z,83.08
2017-06-10T00:59:34.443Z,82.94
2017-06-10T01:00:47.225Z,83.14
2017-06-10T01:02:00.005Z,83.33
2017-06-10T01:03:12.301Z,82.46
2017-06-10T01:04:25.076Z,83.61
2017-06-10T01:05:37.853Z,83.04
2017-06-10T01:06:50.637Z,82.94
2017-06-10T01:08:03.410Z,83.33
2017-06-10T01:09:15.711Z,83.14
2017-06-10T01:10:28.485Z,83.33
2017-06-10T01:11:41.263Z,83.14
2017-06-10T01:12:54.040Z,83.71
2017-06-10T01:14:06.822Z,83.33
2017-06-10T01:15:19.599Z,83.33
2017-06-10T01:16:31.902Z,84.67
2017-06-10T01:17:44.689Z,84.48
2017-06-10T01:18:57.473Z,83.33
2017-06-10T01:20:10.457Z,83.91
2017-06-10T01:21:22.755Z,83.71
2017-06-10T01:22:35.541Z,83.23
2017-06-10T01:23:48.323Z,82.27
2017-06-10T01:25:01.120Z,82.46
2017-06-10T01:26:14.101Z,83.14
2017-06-10T01:27:26.882Z,83.04
2017-06-10T01:28:39.669Z,83.04
2017-06-10T01:29:52.452Z,82.08
2017-06-10T01:31:05.432Z,81.7
2017-06-10T01:32:17.252Z,81.66
2017-06-10T01:33:30.033Z,81.7
2017-06-10T01:34:42.333Z,81.75
2017-06-10T01:35:55.113Z,81.85
2017-06-10T01:37:07.130Z,80.74
2017-06-10T01:38:19.436Z,81.7
2017-06-10T01:39:32.225Z,81.12
2017-06-10T01:40:44.530Z,81.56
2017-06-10T01:41:57.309Z,80.7
2017-06-10T01:43:09.610Z,80.99
2017-06-10T01:44:22.395Z,81.18
2017-06-10T01:45:34.689Z,81.18
2017-06-10T01:46:46.510Z,81.75
2017-06-10T01:47:59.493Z,81.85
2017-06-10T01:49:12.276Z,81.66
2017-06-10T01:50:25.096Z,81.46
2017-06-10T01:51:37.880Z,81.08
2017-06-10T01:52:50.663Z,80.7
2017-06-10T01:54:03.448Z,80.22
2017-06-10T01:55:15.749Z,81.18
2017-06-10T01:56:28.047Z,80.89
2017-06-10T01:57:40.826Z,80.99
2017-06-10T01:58:53.608Z,80.51
2017-06-10T02:00:06.385Z,80.79
2017-06-10T02:01:19.186Z,80.89
2017-06-10T02:02:31.963Z,80.6
2017-06-10T02:03:44.455Z,80.41
2017-06-10T02:04:57.231Z,80.89
2017-06-10T02:06:10.043Z,80.7
2017-06-10T02:07:22.825Z,81.56
2017-06-10T02:08:35.124Z,80.7
2017-06-10T02:09:47.902Z,80.6
2017-06-10T02:11:00.684Z,80.79
2017-06-10T02:12:13.466Z,79.88
2017-06-10T02:13:26.240Z,80.22
2017-06-10T02:14:38.537Z,81.02
2017-06-10T02:15:51.325Z,80.93
2017-06-10T02:17:04.101Z,81.02
2017-06-10T02:18:16.396Z,82.42
2017-06-10T02:19:29.174Z,83.29
2017-06-10T02:20:56.024Z,84.25
2017-06-10T02:22:08.805Z,84.72
2017-06-10T02:23:21.581Z,85.49
2017-06-10T02:24:34.371Z,85.97
2017-06-10T02:25:47.346Z,85.78
2017-06-10T02:27:00.124Z,85.68
2017-06-10T02:28:12.897Z,86.07
2017-06-10T02:29:25.670Z,86.25
2017-06-10T02:30:37.965Z,86.6
2017-06-10T02:31:50.740Z,86.88
2017-06-10T02:33:03.517Z,87.37
2017-06-10T02:34:16.293Z,86.98
2017-06-10T02:35:29.078Z,86.88
2017-06-10T02:36:41.857Z,86.79
2017-06-10T02:37:54.636Z,86.69
2017-06-10T02:39:07.413Z,86.88
2017-06-10T02:40:19.707Z,87.17
2017-06-10T02:41:32.512Z,86.88
2017-06-10T02:42:45.288Z,86.21
2017-06-10T02:43:58.063Z,86.5
2017-06-10T02:45:10.857Z,86.21
2017-06-10T02:46:23.631Z,86.12
2017-06-10T02:47:36.408Z,86.25
2017-06-10T02:48:48.704Z,86.31
2017-06-10T02:50:01.481Z,86.02
2017-06-10T02:51:14.262Z,86.31
2017-06-10T02:52:26.753Z,86.5
2017-06-10T02:53:39.531Z,86.88
2017-06-10T02:54:52.314Z,87.37
2017-06-10T02:56:05.093Z,86.98
2017-06-10T02:57:17.871Z,87.17
2017-06-10T02:58:30.653Z,87.21
2017-06-10T02:59:43.430Z,86.83
2017-06-10T03:00:56.213Z,86.74
2017-06-10T03:02:08.989Z,87.08
2017-06-10T03:03:21.770Z,86.16
2017-06-10T03:04:34.064Z,86.35
2017-06-10T03:05:46.357Z,86.25
2017-06-10T03:06:59.130Z,86.79
2017-06-10T03:08:10.938Z,86.6
2017-06-10T03:09:23.912Z,86.69
2017-06-10T03:10:36.211Z,86.79
2017-06-10T03:11:48.985Z,86.83
2017-06-10T03:13:01.767Z,86.02
2017-06-10T03:14:14.543Z,86.25
2017-06-10T03:15:27.319Z,85.58
2017-06-10T03:16:39.617Z,85.97
2017-06-10T03:17:52.394Z,85.88
2017-06-10T03:19:05.175Z,85.68
2017-06-10T03:20:17.467Z,86.41
2017-06-10T03:21:29.763Z,86.12
2017-06-10T03:22:42.541Z,86.74
2017-06-10T03:23:55.347Z,86.69
2017-06-10T03:25:08.326Z,87.27
2017-06-10T03:26:20.141Z,86.98
2017-06-10T03:27:32.438Z,87.08
2017-06-10T03:28:45.216Z,87.37
2017-06-10T03:29:57.507Z,87.46
2017-06-10T03:31:10.283Z,86.88
2017-06-10T03:32:23.062Z,86.88
2017-06-10T03:33:35.850Z,87.6
2017-06-10T03:34:48.634Z,87.6
2017-06-10T03:36:01.409Z,88.08
2017-06-10T03:37:14.183Z,87.02
2017-06-10T03:38:26.962Z,86.35
2017-06-10T03:39:39.742Z,86.64
2017-06-10T03:40:52.519Z,85.68
2017-06-10T03:42:05.303Z,86.21
2017-06-10T03:43:17.602Z,85.78
2017-06-10T03:44:30.379Z,86.21
2017-06-10T03:45:43.170Z,86.07
2017-06-10T03:46:55.950Z,86.79
2017-06-10T03:48:08.727Z,88.03
2017-06-10T03:49:21.508Z,88.61
2017-06-10T03:50:34.287Z,88.99
2017-06-10T03:51:47.067Z,87.84
2017-06-10T03:53:00.045Z,88.42
2017-06-10T03:54:12.821Z,88.13
2017-06-10T03:55:25.594Z,88.8
2017-06-10T03:56:37.889Z,88.03
2017-06-10T03:57:50.179Z,88.7
2017-06-10T03:59:02.473Z,88.51
2017-06-10T04:00:15.250Z,89.09
2017-06-10T04:01:28.028Z,88.99
2017-06-10T04:02:40.807Z,88.7
2017-06-10T04:03:53.300Z,89.18
2017-06-10T04:05:06.077Z,86.98
2017-06-10T04:06:18.855Z,86.21
2017-06-10T04:07:31.147Z,85.83
2017-06-10T04:08:43.920Z,85.74
2017-06-10T04:09:56.213Z,85.93
2017-06-10T04:11:08.514Z,86.27
2017-06-10T04:12:21.290Z,85.79
2017-06-10T04:13:34.064Z,85.79
2017-06-10T04:14:47.080Z,85.69
2017-06-10T04:15:59.984Z,85.6
2017-06-10T04:17:12.877Z,85.79
2017-06-10T04:18:25.766Z,86.08
2017-06-10T04:19:38.192Z,85.69
2017-06-10T04:20:51.088Z,85.88
2017-06-10T04:22:03.497Z,85.5
2017-06-10T04:23:15.902Z,84.83
2017-06-10T04:24:28.313Z,85.69
2017-06-10T04:25:41.207Z,85.31
2017-06-10T04:26:53.606Z,85.21
2017-06-10T04:28:06.498Z,85.31
2017-06-10T04:29:18.903Z,85.02
2017-06-10T04:30:31.798Z,85.41
2017-06-10T04:31:44.408Z,85.31
2017-06-10T04:32:57.313Z,84.74
2017-06-10T04:34:10.205Z,85.02
2017-06-10T04:35:23.098Z,85.12
2017-06-10T04:36:35.500Z,84.83
2017-06-10T04:37:47.901Z,84.55
2017-06-10T04:39:00.796Z,85.21
2017-06-10T04:40:13.695Z,85.31
2017-06-10T04:41:26.590Z,85.02
2017-06-10T04:42:39.192Z,84.64
2017-06-10T04:43:52.084Z,84.64
2017-06-10T04:45:04.983Z,85.5
2017-06-10T04:46:17.879Z,85.84
2017-06-10T04:47:30.773Z,85.75
2017-06-10T04:48:43.663Z,85.65
2017-06-10T04:49:56.066Z,85.84
2017-06-10T04:51:08.962Z,86.04
2017-06-10T04:52:21.861Z,86.13
2017-06-10T04:53:34.963Z,85.94
2017-06-10T04:54:47.859Z,86.17
2017-06-10T04:56:00.751Z,86.04
2017-06-10T04:57:13.647Z,86.7
2017-06-10T04:58:26.254Z,86.61
2017-06-10T04:59:39.148Z,86.51
2017-06-10T05:00:52.049Z,87.37
2017-06-10T05:02:04.937Z,87.95
2017-06-10T05:03:17.832Z,87.95
2017-06-10T05:04:30.927Z,87.56
2017-06-10T05:05:43.334Z,87.56
2017-06-10T05:06:55.742Z,87.18
2017-06-10T05:08:08.638Z,86.9
2017-06-10T05:09:21.049Z,86.99
2017-06-10T05:10:33.940Z,86.8
2017-06-10T05:11:46.343Z,86.74
2017-06-10T05:12:59.240Z,86.32
2017-06-10T05:14:11.645Z,86.32
2017-06-10T05:15:24.741Z,86.9
2017-06-10T05:16:37.634Z,87.47
2017-06-10T05:17:50.526Z,88.13
2017-06-10T05:19:03.419Z,88.33
2017-06-10T05:20:16.508Z,88.52
2017-06-10T05:21:29.404Z,89
2017-06-10T05:22:42.290Z,88.62
2017-06-10T05:23:54.692Z,88.38
2017-06-10T05:25:07.582Z,88.38
2017-06-10T05:26:20.470Z,88.76
2017-06-10T05:27:33.362Z,89.15
2017-06-10T05:28:45.770Z,89.19
2017-06-10T05:29:58.664Z,89.09
2017-06-10T05:31:11.274Z,89.19
2017-06-10T05:32:23.712Z,89.34
2017-06-10T05:33:36.610Z,90.39
2017-06-10T05:34:49.502Z,90.77
2017-06-10T05:36:02.397Z,89.81
2017-06-10T05:37:15.290Z,89.53
2017-06-10T05:38:27.698Z,89.24
2017-06-10T05:39:40.095Z,89.81
2017-06-10T05:40:53.024Z,90.01
2017-06-10T05:42:06.066Z,90.1
2017-06-10T05:43:19.101Z,89.62
2017-06-10T05:44:32.107Z,89.81
2017-06-10T05:45:45.022Z,89.62
2017-06-10T05:46:57.946Z,89.81
2017-06-10T05:48:09.877Z,89.72
2017-06-10T05:49:22.793Z,89.72
2017-06-10T05:50:35.715Z,89.24
2017-06-10T05:51:48.144Z,89.24
2017-06-10T05:53:01.258Z,88.48
2017-06-10T05:54:14.172Z,88.48
2017-06-10T05:55:26.597Z,88.57
2017-06-10T05:56:39.511Z,88.95
2017-06-10T05:57:52.422Z,86.37
2017-06-10T05:59:05.048Z,84.27
2017-06-10T06:00:17.964Z,83.79
2017-06-10T06:01:30.392Z,83.22
2017-06-10T06:02:43.309Z,81.3
2017-06-10T06:03:56.429Z,81.59
2017-06-10T06:05:09.344Z,81.4
2017-06-10T06:06:22.262Z,82.17
2017-06-10T06:07:35.178Z,82.17
2017-06-10T06:08:47.602Z,80.92
2017-06-10T06:10:00.713Z,81.49
2017-06-10T06:11:12.646Z,82.07
2017-06-10T06:12:25.568Z,82.51
2017-06-10T06:13:38.482Z,82.51
2017-06-10T06:14:50.913Z,83.37
2017-06-10T06:16:03.828Z,83.17
2017-06-10T06:17:16.250Z,82.79
2017-06-10T06:18:29.170Z,82.03
2017-06-10T06:19:42.101Z,82.31
2017-06-10T06:20:55.016Z,81.55
2017-06-10T06:22:07.931Z,79.44
2017-06-10T06:23:19.880Z,78.58
2017-06-10T06:24:32.805Z,78.01
2017-06-10T06:25:45.721Z,76.96
2017-06-10T06:26:58.635Z,77.15
2017-06-10T06:28:11.553Z,76.67
2017-06-10T06:29:24.462Z,76.9
2017-06-10T06:30:36.898Z,76.96
2017-06-10T06:31:49.520Z,77.67
2017-06-10T06:33:01.947Z,77.44
2017-06-10T06:34:14.367Z,78.11
2017-06-10T06:35:26.791Z,78.97
2017-06-10T06:36:39.415Z,78.87
2017-06-10T06:37:52.328Z,78.68
2017-06-10T06:39:05.254Z,79.16
2017-06-10T06:40:17.678Z,79.54
2017-06-10T06:41:30.592Z,79.64
2017-06-10T06:42:57.754Z,80.59
2017-06-10T06:44:10.666Z,80.11
2017-06-10T06:45:23.090Z,80.02
2017-06-10T06:46:36.003Z,79.44
2017-06-10T06:47:48.623Z,78.97
2017-06-10T06:49:01.507Z,78.49
2017-06-10T06:50:13.873Z,77.92
2017-06-10T06:51:26.740Z,77.15
2017-06-10T06:52:39.595Z,76.2
2017-06-10T06:53:51.961Z,76.29
2017-06-10T06:55:04.819Z,76.67
2017-06-10T06:56:17.188Z,76.29
2017-06-10T06:57:30.042Z,77.15
2017-06-10T06:58:42.898Z,77.72
2017-06-10T06:59:55.760Z,77.06
2017-06-10T07:01:08.127Z,76.48
2017-06-10T07:02:20.983Z,76.2
2017-06-10T07:03:33.839Z,76.48
2017-06-10T07:04:47.485Z,76.39
2017-06-10T07:06:00.349Z,75.81
2017-06-10T07:07:13.206Z,75.24
2017-06-10T07:08:25.577Z,74.76
2017-06-10T07:09:38.451Z,75.24
2017-06-10T07:10:51.301Z,75.81
2017-06-10T07:12:04.156Z,76.1
2017-06-10T07:13:17.011Z,77.06
2017-06-10T07:14:29.865Z,77.82
2017-06-10T07:15:42.437Z,77.63
2017-06-10T07:16:55.296Z,83.56
2017-06-10T07:18:08.155Z,87.29
2017-06-10T07:19:20.521Z,88.81
2017-06-10T07:20:33.404Z,90.16
2017-06-10T07:21:46.266Z,91.06
2017-06-10T07:22:59.102Z,88.39
2017-06-10T07:24:11.875Z,83.99
2017-06-10T07:25:24.655Z,82.71
2017-06-10T07:26:37.147Z,84.14
2017-06-10T07:27:49.461Z,84.81
2017-06-10T07:29:02.238Z,83.23
2017-06-10T07:30:15.013Z,80.32
2017-06-10T07:31:27.986Z,79.56
2017-06-10T07:32:40.759Z,79.31
2017-06-10T07:33:53.529Z,78.07
2017-06-10T07:35:05.827Z,76.82
2017-06-10T07:36:18.603Z,76.92
2017-06-10T07:37:31.387Z,76.12
2017-06-10T07:38:44.175Z,76.31
2017-06-10T07:39:56.465Z,76.5
2017-06-10T07:41:09.240Z,75.07
2017-06-10T07:42:21.737Z,74.69
2017-06-10T07:43:34.512Z,75.64
2017-06-10T07:44:47.284Z,74.98
2017-06-10T07:46:00.083Z,75.07
2017-06-10T07:47:12.857Z,74.4
2017-06-10T07:48:25.827Z,73.44
2017-06-10T07:49:38.129Z,73.25
2017-06-10T07:50:50.907Z,73.35
2017-06-10T07:52:03.678Z,72.39
2017-06-10T07:53:15.692Z,72.78
2017-06-10T07:54:28.472Z,72.87
2017-06-10T07:55:41.246Z,71.82
2017-06-10T07:56:52.576Z,71.63
2017-06-10T07:58:05.350Z,72.01
2017-06-10T07:59:18.369Z,71.72
2017-06-10T08:00:30.793Z,72.3
2017-06-10T08:01:43.705Z,71.63
2017-06-10T08:02:56.122Z,72.3
2017-06-10T08:04:08.740Z,72.49
2017-06-10T08:05:21.651Z,73.44
2017-06-10T08:06:34.564Z,73.44
2017-06-10T08:07:47.475Z,73.54
2017-06-10T08:09:00.389Z,73.83
2017-06-10T08:10:13.010Z,73.92
2017-06-10T08:11:25.431Z,74.49
2017-06-10T08:12:37.874Z,75.16
2017-06-10T08:13:50.790Z,75.07
2017-06-10T08:15:03.210Z,74.98
2017-06-10T08:16:15.630Z,75.35
2017-06-10T08:17:28.543Z,75.26
2017-06-10T08:18:40.962Z,75.26
2017-06-10T08:19:53.908Z,74.3
2017-06-10T08:21:07.018Z,75.16
2017-06-10T08:22:19.436Z,74.98
2017-06-10T08:23:32.351Z,75.07
2017-06-10T08:24:44.770Z,75.45
2017-06-10T08:25:57.391Z,75.83
2017-06-10T08:27:10.301Z,75.89
2017-06-10T08:28:22.719Z,75.89
2017-06-10T08:29:35.656Z,75.13
2017-06-10T08:30:48.117Z,75.42
2017-06-10T08:32:00.868Z,75.51
2017-06-10T08:33:13.428Z,75.22
2017-06-10T08:34:26.481Z,74.55
2017-06-10T08:35:39.539Z,73.5
2017-06-10T08:36:52.795Z,73.22
2017-06-10T08:38:05.875Z,71.88
2017-06-10T08:39:18.424Z,71.66
2017-06-10T08:40:31.488Z,71.46
2017-06-10T08:41:44.541Z,72.23
2017-06-10T08:42:57.290Z,71.75
2017-06-10T08:44:10.292Z,71.98
2017-06-10T08:45:22.225Z,71.88
2017-06-10T08:46:35.152Z,71.31
2017-06-10T08:47:48.266Z,70.89
2017-06-10T08:49:01.180Z,71.08
2017-06-10T08:50:13.604Z,71.37
2017-06-10T08:51:26.515Z,71.56
2017-06-10T08:52:39.432Z,71.56
2017-06-10T08:53:52.570Z,71.08
2017-06-10T08:55:04.988Z,71.46
2017-06-10T08:56:17.904Z,70.98
2017-06-10T08:57:30.325Z,71.46
2017-06-10T08:58:43.444Z,71.84
2017-06-10T08:59:56.361Z,71.66
2017-06-10T09:01:09.272Z,71.43
2017-06-10T09:02:21.205Z,72
2017-06-10T09:03:34.078Z,71.81
2017-06-10T09:04:47.063Z,71.91
2017-06-10T09:05:59.840Z,72.19
2017-06-10T09:07:12.138Z,71.62
2017-06-10T09:08:24.907Z,71.91
2017-06-10T09:09:37.196Z,71.91
2017-06-10T09:10:49.980Z,71.72
2017-06-10T09:12:02.756Z,72.28
2017-06-10T09:13:15.527Z,72.67
2017-06-10T09:14:28.297Z,72.19
2017-06-10T09:15:41.268Z,73.08
2017-06-10T09:16:54.041Z,72.89
2017-06-10T09:18:06.814Z,73.37
2017-06-10T09:19:19.588Z,73.85
2017-06-10T09:20:32.363Z,73.56
2017-06-10T09:21:45.140Z,73.47
2017-06-10T09:22:57.912Z,73.28
2017-06-10T09:24:10.210Z,73.37
2017-06-10T09:25:22.978Z,74.04
2017-06-10T09:26:35.948Z,73.56
2017-06-10T09:27:48.717Z,74.13
2017-06-10T09:29:01.007Z,74.13
2017-06-10T09:30:13.778Z,73.75
2017-06-10T09:31:26.267Z,74.13
2017-06-10T09:32:39.038Z,74.61
2017-06-10T09:33:51.327Z,74.32
2017-06-10T09:35:04.101Z,73.66
2017-06-10T09:36:16.390Z,73.28
2017-06-10T09:37:28.686Z,73.18
2017-06-10T09:38:41.467Z,72.89
2017-06-10T09:39:54.266Z,73.47
2017-06-10T09:41:06.071Z,73.18
2017-06-10T09:42:18.561Z,72.61
2017-06-10T09:43:31.334Z,72.51
2017-06-10T09:44:43.143Z,73.47
2017-06-10T09:45:55.918Z,73.18
2017-06-10T09:47:08.689Z,72.61
2017-06-10T09:48:21.181Z,72.23
2017-06-10T09:49:33.469Z,73.08
2017-06-10T09:50:46.248Z,73.18
2017-06-10T09:51:58.543Z,73.18
2017-06-10T09:53:11.033Z,72.89
2017-06-10T09:54:23.815Z,72.32
2017-06-10T09:55:36.587Z,72.61
2017-06-10T09:56:49.356Z,72.71
2017-06-10T09:58:02.137Z,72.71
2017-06-10T09:59:14.904Z,72.8
2017-06-10T10:00:27.197Z,72.61
2017-06-10T10:01:39.967Z,72.32
2017-06-10T10:02:52.266Z,72.8
2017-06-10T10:04:04.563Z,72.51
2017-06-10T10:05:16.369Z,73.28
2017-06-10T10:06:29.144Z,73.37
2017-06-10T10:07:41.914Z,73.08
2017-06-10T10:08:54.206Z,73.37
2017-06-10T10:10:07.008Z,73.08
2017-06-10T10:11:19.383Z,72.71
2017-06-10T10:12:32.244Z,72.42
2017-06-10T10:13:45.103Z,72.42
2017-06-10T10:14:58.009Z,72.42
2017-06-10T10:16:10.501Z,73.37
2017-06-10T10:17:22.993Z,72.51
2017-06-10T10:18:35.983Z,72.71
2017-06-10T10:19:48.478Z,73.28
2017-06-10T10:21:01.464Z,73.66
2017-06-10T10:22:14.466Z,73.85
2017-06-10T10:23:26.467Z,74.32
2017-06-10T10:24:39.461Z,73.85
2017-06-10T10:25:51.957Z,74.61
2017-06-10T10:27:04.451Z,74.04
2017-06-10T10:28:17.449Z,73.75
2017-06-10T10:29:29.942Z,74.32
2017-06-10T10:30:42.434Z,73.47
2017-06-10T10:31:55.130Z,72.61
2017-06-10T10:33:07.629Z,72.42
2017-06-10T10:34:20.120Z,72.42
2017-06-10T10:35:32.120Z,72.03
2017-06-10T10:36:45.308Z,71.46
2017-06-10T10:37:57.305Z,71.66
2017-06-10T10:39:10.294Z,72.23
2017-06-10T10:40:23.290Z,72.13
2017-06-10T10:41:36.288Z,72.51
2017-06-10T10:42:48.781Z,72.71
2017-06-10T10:44:01.750Z,72.51
2017-06-10T10:45:14.167Z,72.42
2017-06-10T10:46:27.083Z,72.13
2017-06-10T10:47:39.993Z,71.75
2017-06-10T10:48:52.904Z,71.46
2017-06-10T10:50:05.810Z,71.94
2017-06-10T10:51:18.726Z,71.69
2017-06-10T10:52:31.142Z,71.78
2017-06-10T10:53:44.052Z,71.31
2017-06-10T10:54:56.961Z,70.98
2017-06-10T10:56:08.888Z,70.42
2017-06-10T10:57:21.312Z,71.18
2017-06-10T10:58:33.443Z,71.75
2017-06-10T10:59:46.357Z,71.56
2017-06-10T11:00:58.774Z,71.66
2017-06-10T11:02:11.682Z,71.94
2017-06-10T11:03:24.099Z,72.23
2017-06-10T11:04:37.209Z,71.66
2017-06-10T11:05:50.131Z,71.37
2017-06-10T11:07:03.038Z,71.27
2017-06-10T11:08:15.469Z,71.69
2017-06-10T11:09:28.580Z,72.45
2017-06-10T11:10:41.489Z,71.69
2017-06-10T11:11:54.399Z,71.59
2017-06-10T11:13:07.313Z,71.59
2017-06-10T11:14:19.729Z,71.98
2017-06-10T11:15:32.858Z,71.78
2017-06-10T11:16:45.782Z,71.88
2017-06-10T11:17:58.199Z,72.26
2017-06-10T11:19:10.618Z,71.98
2017-06-10T11:20:23.038Z,71.5
2017-06-10T11:21:35.947Z,71.59
2017-06-10T11:22:47.904Z,71.59
2017-06-10T11:24:00.812Z,71.69
2017-06-10T11:25:13.234Z,71.78
2017-06-10T11:26:26.348Z,72.07
2017-06-10T11:27:39.257Z,71.69
2017-06-10T11:28:52.167Z,72.74
2017-06-10T11:30:05.081Z,72.93
2017-06-10T11:31:18.198Z,73.12
2017-06-10T11:32:30.123Z,73.88
2017-06-10T11:33:43.048Z,73.63
2017-06-10T11:34:55.964Z,72.3
2017-06-10T11:36:08.385Z,73.44
2017-06-10T11:37:21.301Z,73.25
2017-06-10T11:38:34.217Z,74.59
2017-06-10T11:39:47.135Z,75.26
2017-06-10T11:41:00.044Z,75.26
2017-06-10T11:42:12.957Z,75.54
2017-06-10T11:43:24.887Z,76.16
2017-06-10T11:44:37.296Z,76.54
2017-06-10T11:45:50.190Z,76.25
2017-06-10T11:47:03.087Z,76.64
2017-06-10T11:48:15.697Z,76.35
2017-06-10T11:49:28.590Z,76.77
2017-06-10T11:50:40.993Z,76
2017-06-10T11:51:53.889Z,75.05
2017-06-10T11:53:06.296Z,74.57
2017-06-10T11:54:19.192Z,74.32
2017-06-10T11:55:32.086Z,74.04
2017-06-10T11:56:44.972Z,74.04
2017-06-10T11:57:57.867Z,73.65
2017-06-10T11:59:09.982Z,73.27
2017-06-10T12:00:22.868Z,73.4
2017-06-10T12:01:35.272Z,72.63
2017-06-10T12:02:47.685Z,72.54
2017-06-10T12:04:00.781Z,73.5
2017-06-10T12:05:13.186Z,73.02
2017-06-10T12:06:26.076Z,72.09
2017-06-10T12:07:38.974Z,72.29
2017-06-10T12:08:50.896Z,72.96
2017-06-10T12:10:03.815Z,71.14
2017-06-10T12:11:16.222Z,70.95
2017-06-10T12:12:28.627Z,70.89
2017-06-10T12:13:41.526Z,70.89
2017-06-10T12:14:54.422Z,70.03
2017-06-10T12:16:07.316Z,69.29
2017-06-10T12:17:20.212Z,69.48
2017-06-10T12:18:33.151Z,69.01
2017-06-10T12:19:46.047Z,68.91
2017-06-10T12:20:59.145Z,68.37
2017-06-10T12:22:11.068Z,68.37
2017-06-10T12:23:23.966Z,68.95
2017-06-10T12:24:36.870Z,69.23
2017-06-10T12:25:49.773Z,68.75
2017-06-10T12:27:02.672Z,68.27
2017-06-10T12:28:15.110Z,67.99
2017-06-10T12:29:28.003Z,67.83
2017-06-10T12:30:40.897Z,68.59
2017-06-10T12:31:53.992Z,68.02
2017-06-10T12:33:06.398Z,67.83
2017-06-10T12:34:19.300Z,68.02
2017-06-10T12:35:32.197Z,68.3
2017-06-10T12:36:44.609Z,68.3
2017-06-10T12:37:57.506Z,68.66
2017-06-10T12:39:10.406Z,68.56
2017-06-10T12:40:23.308Z,68.5
2017-06-10T12:41:36.209Z,67.92
2017-06-10T12:42:49.314Z,67.35
2017-06-10T12:44:02.211Z,67.83
2017-06-10T12:45:14.616Z,67.54
2017-06-10T12:46:27.524Z,66.96
2017-06-10T12:47:40.620Z,67
2017-06-10T12:48:52.539Z,67
2017-06-10T12:50:04.953Z,66.71
2017-06-10T12:51:17.852Z,67
2017-06-10T12:52:30.757Z,67.76
2017-06-10T12:53:43.856Z,66.61
2017-06-10T12:54:56.749Z,65.75
2017-06-10T12:56:08.667Z,67
2017-06-10T12:57:21.561Z,65.84
2017-06-10T12:58:33.970Z,66.23
2017-06-10T12:59:46.868Z,67.29
2017-06-10T13:00:59.767Z,67
2017-06-10T13:02:12.669Z,66.9
2017-06-10T13:03:25.568Z,67.35
2017-06-10T13:04:38.467Z,67.35
2017-06-10T13:05:51.506Z,68.85
2017-06-10T13:07:04.319Z,69.01
2017-06-10T13:08:17.098Z,69.13
2017-06-10T13:09:29.899Z,68.56
2017-06-10T13:10:42.705Z,69.04
2017-06-10T13:11:55.483Z,69.62
2017-06-10T13:13:08.268Z,69.33
2017-06-10T13:14:20.569Z,69.52
2017-06-10T13:15:33.550Z,69.23
2017-06-10T13:16:45.851Z,70.09
2017-06-10T13:17:58.148Z,71.02
2017-06-10T13:19:10.443Z,71.59
2017-06-10T13:20:23.225Z,72.13
2017-06-10T13:21:36.015Z,72.13
2017-06-10T13:22:47.831Z,71.17
2017-06-10T13:24:00.607Z,70.5
2017-06-10T13:25:12.904Z,70.25
2017-06-10T13:26:25.401Z,71.02
2017-06-10T13:27:38.186Z,70.83
2017-06-10T13:28:50.972Z,71.5
2017-06-10T13:30:03.752Z,70.83
2017-06-10T13:31:16.051Z,70.15
2017-06-10T13:32:28.351Z,68.72
2017-06-10T13:33:41.130Z,69.1
2017-06-10T13:34:53.911Z,69.01
2017-06-10T13:36:06.686Z,69.93
2017-06-10T13:37:18.983Z,70.5
2017-06-10T13:38:31.764Z,70.41
2017-06-10T13:39:44.552Z,70.79
2017-06-10T13:40:57.334Z,70.89
2017-06-10T13:42:10.120Z,70.31
2017-06-10T13:43:22.903Z,70.5
2017-06-10T13:44:35.685Z,70.89
2017-06-10T13:45:47.998Z,70.89
2017-06-10T13:47:00.299Z,71.56
2017-06-10T13:48:13.088Z,71.08
2017-06-10T13:49:25.870Z,71.46
2017-06-10T13:50:38.201Z,71.37
2017-06-10T13:51:50.513Z,71.17
2017-06-10T13:53:03.311Z,71.46
2017-06-10T13:54:16.098Z,71.56
2017-06-10T13:55:28.399Z,71.56
2017-06-10T13:56:41.185Z,71.37
2017-06-10T13:57:53.493Z,69.74
2017-06-10T13:59:06.539Z,69.26
2017-06-10T14:00:19.468Z,70.15
2017-06-10T14:01:32.395Z,69.01
2017-06-10T14:02:44.346Z,67.38
2017-06-10T14:03:56.772Z,67.57
2017-06-10T14:05:09.684Z,67.66
2017-06-10T14:06:22.107Z,67.57
2017-06-10T14:07:35.022Z,68.08
2017-06-10T14:08:47.953Z,68.08
2017-06-10T14:10:01.066Z,66.55
2017-06-10T14:11:13.490Z,66.93
2017-06-10T14:12:25.919Z,66.96
2017-06-10T14:13:38.848Z,65.23
2017-06-10T14:14:50.814Z,66.06
2017-06-10T14:16:03.243Z,66.74
2017-06-10T14:17:15.180Z,67.54
2017-06-10T14:18:28.099Z,67.89
2017-06-10T14:19:41.013Z,67.44
2017-06-10T14:20:53.436Z,66.96
2017-06-10T14:22:05.369Z,66.86
2017-06-10T14:23:18.286Z,66.49
2017-06-10T14:24:31.202Z,65.17
2017-06-10T14:25:44.318Z,65.56
2017-06-10T14:26:56.747Z,65.36
2017-06-10T14:28:09.170Z,65.94
2017-06-10T14:29:21.598Z,65.27
2017-06-10T14:30:34.022Z,64.4
2017-06-10T14:31:47.138Z,64.22
2017-06-10T14:33:00.063Z,64.12
2017-06-10T14:34:12.979Z,63.48
2017-06-10T14:35:25.404Z,63.19
2017-06-10T14:36:38.318Z,63.09
2017-06-10T14:37:51.235Z,62.42
2017-06-10T14:39:03.172Z,60.78
2017-06-10T14:40:16.089Z,60.66
2017-06-10T14:41:28.515Z,61.62
2017-06-10T14:42:41.433Z,61.33
2017-06-10T14:43:54.347Z,60.18
2017-06-10T14:45:07.265Z,59.96
2017-06-10T14:46:20.186Z,62.36
2017-06-10T14:47:45.560Z,63.12
2017-06-10T14:48:58.400Z,62.42
2017-06-10T14:50:10.216Z,63.86
2017-06-10T14:51:22.994Z,64.43
2017-06-10T14:52:35.776Z,66.16
2017-06-10T14:53:48.082Z,65.78
2017-06-10T14:55:00.870Z,64.34
2017-06-10T14:56:12.686Z,64.72
2017-06-10T14:57:25.472Z,65.01
2017-06-10T14:58:38.259Z,63.86
2017-06-10T14:59:50.580Z,63.29
2017-06-10T15:01:03.359Z,62.33
2017-06-10T15:02:16.139Z,63.76
2017-06-10T15:03:28.441Z,64.53
2017-06-10T15:04:41.228Z,63.76
2017-06-10T15:05:53.537Z,64.15
2017-06-10T15:07:05.841Z,63.48
2017-06-10T15:08:17.669Z,63.19
2017-06-10T15:09:30.459Z,62.23
2017-06-10T15:10:43.260Z,61.49
2017-06-10T15:11:55.579Z,62.13
2017-06-10T15:13:08.364Z,62.71
2017-06-10T15:14:20.868Z,62.71
2017-06-10T15:15:33.646Z,62.23
2017-06-10T15:16:46.428Z,60.6
2017-06-10T15:17:58.721Z,61.21
2017-06-10T15:19:11.509Z,62.16
2017-06-10T15:20:24.300Z,62.16
2017-06-10T15:21:37.078Z,62.07
2017-06-10T15:22:49.863Z,62.07
2017-06-10T15:24:02.655Z,62.36
2017-06-10T15:25:15.445Z,62.36
2017-06-10T15:26:27.759Z,61.88
2017-06-10T15:27:40.072Z,61.98
2017-06-10T15:28:52.401Z,62.07
2017-06-10T15:30:04.819Z,62.07
2017-06-10T15:31:17.956Z,62.07
2017-06-10T15:32:30.881Z,62.45
2017-06-10T15:33:43.796Z,62.84
2017-06-10T15:34:56.709Z,63.22
2017-06-10T15:36:09.134Z,63.12
2017-06-10T15:37:21.559Z,62.65
2017-06-10T15:38:34.474Z,62.74
2017-06-10T15:39:46.905Z,62.68